Date,TemperatureHighF,TemperatureAvgF,TemperatureLowF,DewpointHighF,DewpointAvgF,DewpointLowF,HumidityHigh,HumidityAvg,HumidityLow,PressureMaxIn,PressureMinIn,WindSpeedMaxMPH,WindSpeedAvgMPH,GustSpeedMaxMPH,PrecipitationSumIn
2012-12-1,39.8,35.6,26.7,37.7,33.1,22.2,93,90,83,30.20,29.69,27,1,56,0.03
2012-12-2,42.8,39.3,36.8,37.6,35.1,32.7,94,85,68,29.96,29.69,9,0,33,0.00
2012-12-3,57.2,45.9,37.8,53.6,42.7,34.6,94,89,70,29.93,29.45,30,3,54,0.00
2012-12-4,48.5,34.6,25.7,39.9,22.2,10.6,76,61,41,30.16,29.56,37,3,45,0.00
2012-12-5,32.5,28.4,26.3,21.8,17.1,14.9,75,62,54,30.39,30.07,40,1,46,0.00
2012-12-6,38.3,36.0,30.7,33.2,29.7,22.4,87,78,68,30.06,29.67,44,3,59,0.16
2012-12-7,37.2,32.9,29.8,28.3,24.0,22.2,78,69,65,29.87,29.76,13,1,26,0.00
2012-12-10,28.5,26.9,25.3,21.6,19.3,17.9,76,73,69,29.83,29.72,23,2,25,0.00
2012-12-11,29.7,24.8,19.4,19.2,15.3,7.8,78,67,54,29.89,29.69,21,3,34,0.00
2012-12-12,37.0,24.2,15.2,25.6,13.5,6.4,76,64,51,30.14,29.90,27,4,60,0.00
2012-12-13,43.1,36.2,30.0,30.7,25.6,19.8,86,66,40,30.06,29.89,33,2,50,0.01
2012-12-14,31.5,29.9,28.4,25.8,23.4,21.5,84,76,74,30.19,30.06,9,0,21,0.00
2012-12-15,39.9,35.9,29.8,34.6,31.6,24.7,91,84,75,30.08,29.52,14,0,15,0.01
2012-12-16,38.8,36.6,35.2,37.2,34.8,32.4,95,93,86,29.52,29.44,11,0,16,0.08
2012-12-17,36.2,7.6,0.0,46.2,42.4,26.9,85,17,76,29.62,29.52,15,0,39,0.00
2012-12-18,0.0,0.0,0.0,46.2,46.2,46.2,0,0,100,29.68,29.59,0,0,0,0.00
2012-12-19,38.8,7.1,0.0,46.2,41.1,17.5,59,10,45,29.95,29.69,12,0,23,0.00
2012-12-20,0.0,0.0,0.0,46.2,46.2,46.2,0,0,100,29.96,29.47,0,0,0,0.00
2012-12-21,0.0,0.0,0.0,46.2,46.2,46.2,0,0,100,29.97,29.48,0,0,0,0.00
2012-12-22,30.9,8.5,0.0,46.2,38.2,16.0,79,20,64,30.01,29.78,10,0,20,0.02
2012-12-23,23.3,5.8,0.0,46.2,36.7,10.0,74,18,62,29.99,29.82,13,0,29,0.00
2012-12-24,24.7,6.1,0.0,46.2,38.0,13.1,72,17,63,30.08,29.87,6,0,15,0.00
2012-12-25,23.0,5.8,0.0,46.2,37.3,11.6,73,18,61,30.38,30.08,10,0,14,0.00
2012-12-26,26.0,4.3,0.0,46.2,41.4,15.8,77,13,71,30.36,30.11,5,0,13,0.00
2012-12-27,24.5,5.5,0.0,46.2,39.5,15.5,74,16,69,30.20,30.09,15,0,20,0.00
2012-12-28,25.6,4.5,0.0,46.2,41.1,17.0,74,13,70,30.11,29.91,12,0,15,0.00
2012-12-29,29.0,8.1,0.0,46.2,38.3,16.3,86,22,59,29.96,29.85,10,0,19,0.00
2012-12-30,24.5,7.0,0.0,46.2,35.2,9.2,68,18,55,30.09,29.77,14,1,21,0.06
2012-12-31,22.4,5.1,0.0,46.2,35.4,2.9,72,16,52,30.04,29.70,19,1,51,0.00